Time;durP1;ratioP1;P1;durP2;ratioP2;P2;SDS_P1;SDS_P2;PMS_P1;PMS_P2;Temp;Humidity;BMP_temperature;BMP_pressure;BME280_temperature;BME280_humidity;BME280_pressure;Samples;Min_cycle;Max_cycle;Signal;HPM_P1;HPM_P2
2022/02/11 00:01:07;;;;;;;4.07;3.03;;;4.70;99.90;;;;;;5074301;28;20457;-69
2022/02/11 00:06:33;;;;;;;5.17;2.60;;;4.70;99.90;;;;;;5074460;28;20447;-70
2022/02/11 00:09:00;;;;;;;8.63;3.10;;;4.70;99.90;;;;;;5073827;28;20544;-70
2022/02/11 00:11:34;;;;;;;3.33;2.80;;;4.70;99.90;;;;;;5075558;28;20763;-70
2022/02/11 00:14:01;;;;;;;4.67;2.80;;;4.70;99.90;;;;;;5078013;28;20879;-69
2022/02/11 00:16:28;;;;;;;4.37;2.50;;;4.70;99.90;;;;;;5077694;28;20465;-70
2022/02/11 00:18:58;;;;;;;5.03;2.43;;;4.70;99.90;;;;;;5078030;28;20830;-70
2022/02/11 00:21:25;;;;;;;4.90;2.90;;;4.70;99.90;;;;;;5077944;28;20960;-70
2022/02/11 00:23:52;;;;;;;5.07;3.03;;;4.70;99.90;;;;;;5077863;28;20895;-70
2022/02/11 00:26:19;;;;;;;6.73;3.13;;;4.70;99.90;;;;;;5078087;28;20536;-70
2022/02/11 00:29:40;;;;;;;4.70;2.30;;;4.70;99.90;;;;;;5078153;28;20465;-70
2022/02/11 00:34:38;;;;;;;3.80;2.60;;;4.70;99.90;;;;;;5075163;28;20860;-70
2022/02/11 00:37:09;;;;;;;7.23;3.10;;;4.70;99.90;;;;;;5077597;28;20442;-70
2022/02/11 00:45:34;;;;;;;5.30;2.83;;;4.90;99.90;;;;;;5082387;28;20450;-70
2022/02/11 01:04:30;;;;;;;6.03;3.57;;;5.10;99.90;;;;;;5078213;28;20453;-70
2022/02/11 01:06:58;;;;;;;12.00;4.00;;;5.10;99.90;;;;;;5078865;28;20470;-71
2022/02/11 01:09:25;;;;;;;5.20;3.87;;;5.20;99.90;;;;;;5080229;28;20458;-70
2022/02/11 01:11:54;;;;;;;12.40;4.23;;;5.20;99.90;;;;;;5081401;28;20945;-70
2022/02/11 01:14:31;;;;;;;10.67;6.23;;;5.20;99.90;;;;;;5078415;28;20485;-70
2022/02/11 01:17:07;;;;;;;6.07;4.20;;;5.20;99.90;;;;;;5077566;28;20496;-70
2022/02/11 01:19:43;;;;;;;8.20;3.77;;;5.30;99.90;;;;;;5077271;28;20761;-70
2022/02/11 01:22:20;;;;;;;5.07;3.87;;;5.30;99.90;;;;;;5076535;28;20739;-70
2022/02/11 01:25:04;;;;;;;5.07;3.87;;;5.30;99.90;;;;;;5077502;28;20481;-70
2022/02/11 01:27:38;;;;;;;6.47;4.30;;;5.20;99.90;;;;;;5076748;28;20528;-70
2022/02/11 01:30:32;;;;;;;6.23;4.47;;;5.20;99.90;;;;;;5076417;28;20867;-70
2022/02/11 01:33:22;;;;;;;10.40;4.20;;;5.20;99.90;;;;;;5076592;28;20470;-70
2022/02/11 01:36:00;;;;;;;6.43;4.33;;;5.20;99.90;;;;;;5076394;28;20910;-72
2022/02/11 01:38:39;;;;;;;8.33;3.60;;;5.20;99.90;;;;;;5076831;28;20449;-69
2022/02/11 01:44:28;;;;;;;8.60;5.80;;;5.20;99.90;;;;;;5076300;28;20529;-71
2022/02/11 01:52:28;;;;;;;8.70;4.50;;;5.20;99.90;;;;;;5076242;28;20481;-70
2022/02/11 01:55:13;;;;;;;10.10;4.47;;;5.30;99.90;;;;;;5076500;28;20481;-70
2022/02/11 01:58:15;;;;;;;9.90;5.13;;;5.30;99.90;;;;;;5076175;28;20460;-70
2022/02/11 02:00:59;;;;;;;6.03;4.40;;;5.30;99.90;;;;;;5076311;28;20533;-70
2022/02/11 02:04:04;;;;;;;6.83;5.10;;;5.30;99.90;;;;;;5076024;28;20438;-70
2022/02/11 02:12:38;;;;;;;7.10;6.30;;;5.30;99.90;;;;;;5082760;28;20826;-69
2022/02/11 02:15:36;;;;;;;11.97;7.60;;;5.30;99.90;;;;;;5083225;28;20461;-71
2022/02/11 02:23:57;;;;;;;11.53;8.70;;;5.40;99.90;;;;;;5076298;28;20418;-69
2022/02/11 02:26:38;;;;;;;9.43;7.80;;;5.40;99.90;;;;;;5076377;28;20860;-70
2022/02/11 02:34:57;;;;;;;9.97;7.50;;;5.40;99.90;;;;;;5075262;28;20445;-69
2022/02/11 02:37:43;;;;;;;9.33;7.03;;;5.50;99.90;;;;;;5076775;28;20438;-69
2022/02/11 02:57:08;;;;;;;7.60;4.67;;;5.40;99.90;;;;;;4960081;28;20475;-70
2022/02/11 02:59:58;;;;;;;11.60;5.07;;;5.40;99.90;;;;;;5053466;28;20473;-70
2022/02/11 03:16:47;;;;;;;5.13;3.03;;;5.40;99.90;;;;;;5074638;28;20420;-70
2022/02/11 03:48:37;;;;;;;8.27;3.63;;;5.40;99.90;;;;;;5074624;28;20752;-70
2022/02/11 03:50:12;;;;;;;8.27;4.37;;;5.50;99.90;;;;;;5074134;28;20610;-70
2022/02/11 03:53:15;;;;;;;7.10;5.37;;;5.50;99.90;;;;;;5074187;28;20829;-71
2022/02/11 04:21:07;;;;;;;13.60;10.20;;;5.50;99.90;;;;;;5074563;28;20437;-69
2022/02/11 04:57:01;;;;;;;11.77;7.17;;;5.20;99.90;;;;;;5015086;28;20459;-70
2022/02/11 04:59:38;;;;;;;9.03;6.57;;;5.10;99.90;;;;;;5016411;28;20514;-69
2022/02/11 05:02:06;;;;;;;13.13;7.60;;;5.10;99.90;;;;;;5016441;28;20529;-69
2022/02/11 05:04:33;;;;;;;13.90;6.77;;;5.00;99.90;;;;;;5015923;28;20518;-69
2022/02/11 05:07:00;;;;;;;10.10;6.70;;;5.10;99.90;;;;;;5077156;28;20462;-70
2022/02/11 05:09:28;;;;;;;9.00;6.60;;;5.00;99.90;;;;;;5077258;28;20486;-70
2022/02/11 05:11:55;;;;;;;9.60;6.53;;;5.00;99.90;;;;;;5077202;28;20836;-70
2022/02/11 05:14:23;;;;;;;9.40;6.03;;;5.00;99.90;;;;;;5077319;28;20458;-70
2022/02/11 05:16:49;;;;;;;10.43;6.60;;;5.00;99.90;;;;;;5077101;28;20458;-70
2022/02/11 05:19:16;;;;;;;10.93;6.83;;;5.00;99.90;;;;;;5076921;28;20925;-70
2022/02/11 05:21:43;;;;;;;14.10;7.00;;;4.90;99.90;;;;;;5077056;28;20485;-69
2022/02/11 05:24:09;;;;;;;10.23;6.27;;;4.90;99.90;;;;;;5076915;28;20537;-69
2022/02/11 05:26:36;;;;;;;16.93;8.30;;;5.00;99.90;;;;;;5077057;28;20454;-69
2022/02/11 05:29:03;;;;;;;11.00;7.37;;;5.00;99.90;;;;;;5076610;28;20462;-71
2022/02/11 05:31:31;;;;;;;9.37;5.80;;;5.00;99.90;;;;;;5077038;28;20778;-70
2022/02/11 05:33:58;;;;;;;9.40;6.10;;;5.00;99.90;;;;;;5078356;28;20490;-69
2022/02/11 05:36:24;;;;;;;9.87;6.07;;;5.00;99.90;;;;;;5077041;28;20919;-70
2022/02/11 05:38:51;;;;;;;14.90;6.23;;;5.00;99.90;;;;;;5076081;28;20457;-69
2022/02/11 05:41:19;;;;;;;12.40;6.03;;;5.00;99.90;;;;;;5076346;28;20911;-70
2022/02/11 05:43:46;;;;;;;10.53;5.10;;;4.90;99.90;;;;;;5076657;28;20905;-70
2022/02/11 05:46:13;;;;;;;9.70;5.53;;;4.90;99.90;;;;;;5076674;28;20458;-70
2022/02/11 05:48:43;;;;;;;15.77;6.37;;;4.90;99.90;;;;;;5076481;28;20534;-70
2022/02/11 05:51:10;;;;;;;13.23;5.70;;;4.90;99.90;;;;;;5076286;28;20450;-70
2022/02/11 05:53:37;;;;;;;16.50;6.20;;;4.90;99.90;;;;;;5076385;28;20478;-70
2022/02/11 05:56:04;;;;;;;8.17;4.87;;;4.90;99.90;;;;;;5076399;28;20459;-70
2022/02/11 05:58:31;;;;;;;9.17;5.13;;;4.90;99.90;;;;;;5076272;28;20469;-73
2022/02/11 06:00:57;;;;;;;8.33;4.83;;;4.90;99.90;;;;;;5076240;28;20466;-70
2022/02/11 06:03:25;;;;;;;12.83;5.20;;;4.90;99.90;;;;;;5076265;28;20450;-71
2022/02/11 06:05:54;;;;;;;6.97;5.47;;;5.00;99.90;;;;;;5076198;28;20458;-70
2022/02/11 06:08:20;;;;;;;5.83;4.70;;;5.00;99.90;;;;;;5076104;28;20458;-70
2022/02/11 06:10:47;;;;;;;12.50;6.20;;;5.00;99.90;;;;;;5076317;28;20472;-70
2022/02/11 06:13:14;;;;;;;13.60;5.83;;;5.00;99.90;;;;;;5076739;28;20474;-71
2022/02/11 06:15:41;;;;;;;8.10;4.93;;;5.00;99.90;;;;;;5077245;28;20790;-70
2022/02/11 06:18:10;;;;;;;12.27;5.17;;;5.00;99.90;;;;;;5078182;28;20471;-70
2022/02/11 06:20:36;;;;;;;7.90;4.50;;;5.00;99.90;;;;;;5078605;28;20459;-71
2022/02/11 06:23:05;;;;;;;13.40;5.70;;;5.00;99.90;;;;;;5077030;28;20937;-70
2022/02/11 06:25:32;;;;;;;12.00;5.67;;;5.00;99.90;;;;;;5076838;28;20459;-70
2022/02/11 06:27:59;;;;;;;12.83;4.63;;;5.00;99.90;;;;;;5076290;28;20915;-70
2022/02/11 06:30:26;;;;;;;10.73;5.40;;;5.10;99.90;;;;;;5076342;28;20540;-70
2022/02/11 06:32:53;;;;;;;9.33;5.73;;;5.00;99.90;;;;;;5075914;28;20525;-69
2022/02/11 06:35:20;;;;;;;9.97;5.50;;;5.00;99.90;;;;;;5075798;28;20895;-70
2022/02/11 06:37:48;;;;;;;11.57;5.07;;;4.90;99.90;;;;;;5075970;28;20540;-70
2022/02/11 06:40:16;;;;;;;7.53;5.10;;;4.90;99.90;;;;;;5075565;28;20511;-70
2022/02/11 06:42:44;;;;;;;11.97;5.37;;;4.90;99.90;;;;;;5075727;28;20461;-71
2022/02/11 06:45:11;;;;;;;7.90;4.87;;;5.00;99.90;;;;;;5075466;28;20458;-71
2022/02/11 06:47:38;;;;;;;11.63;5.87;;;5.00;99.90;;;;;;5075467;28;20485;-70
2022/02/11 06:50:06;;;;;;;9.37;5.43;;;5.00;99.90;;;;;;5075042;28;20482;-71
2022/02/11 06:52:33;;;;;;;7.60;6.17;;;5.10;99.90;;;;;;5075270;28;20458;-69
2022/02/11 06:54:59;;;;;;;8.00;6.13;;;5.00;99.90;;;;;;5075347;28;20515;-70
2022/02/11 06:57:27;;;;;;;15.50;6.40;;;5.10;99.90;;;;;;5075319;28;20554;-70
2022/02/11 06:59:54;;;;;;;14.17;7.53;;;5.20;99.90;;;;;;5075350;28;20454;-70
2022/02/11 07:02:21;;;;;;;10.20;5.50;;;5.20;99.90;;;;;;5075217;28;20469;-70
2022/02/11 07:04:48;;;;;;;9.87;6.60;;;5.20;99.90;;;;;;5076093;28;20469;-70
2022/02/11 07:07:14;;;;;;;7.73;6.10;;;5.30;99.90;;;;;;5076496;28;20469;-71
2022/02/11 07:09:41;;;;;;;11.70;6.40;;;5.30;99.90;;;;;;5075846;28;20561;-72
2022/02/11 07:12:09;;;;;;;10.73;5.77;;;5.30;99.90;;;;;;5076484;28;20476;-71
2022/02/11 07:14:37;;;;;;;9.27;5.17;;;5.30;99.90;;;;;;5076180;28;20492;-71
2022/02/11 07:17:04;;;;;;;12.80;5.50;;;5.30;99.90;;;;;;5076489;28;20528;-71
2022/02/11 07:19:31;;;;;;;9.57;5.67;;;5.30;99.90;;;;;;5075521;28;20466;-71
2022/02/11 07:22:00;;;;;;;10.63;6.00;;;5.30;99.90;;;;;;5075823;28;20463;-71
2022/02/11 07:24:27;;;;;;;14.53;6.60;;;5.40;99.90;;;;;;5075639;28;20463;-71
2022/02/11 07:26:54;;;;;;;12.60;7.70;;;5.40;99.90;;;;;;5076671;28;20519;-71
2022/02/11 07:29:21;;;;;;;13.17;7.30;;;5.40;99.90;;;;;;5078342;28;20464;-71
2022/02/11 07:31:49;;;;;;;16.03;7.17;;;5.40;99.90;;;;;;5078895;28;20511;-71
2022/02/11 07:34:16;;;;;;;11.77;6.03;;;5.40;99.90;;;;;;5075586;28;20474;-71
2022/02/11 07:36:43;;;;;;;12.83;7.70;;;5.40;99.90;;;;;;5075931;28;20778;-71
2022/02/11 07:39:10;;;;;;;12.17;6.60;;;5.40;99.90;;;;;;5075339;28;20453;-71
2022/02/11 07:41:37;;;;;;;16.37;7.27;;;5.40;99.90;;;;;;5075248;28;20458;-71
2022/02/11 07:44:05;;;;;;;15.03;7.60;;;5.40;99.90;;;;;;5075204;28;20461;-70
2022/02/11 07:46:32;;;;;;;15.20;6.97;;;5.40;99.90;;;;;;5075735;28;20454;-71
2022/02/11 07:49:00;;;;;;;16.50;7.70;;;5.40;99.90;;;;;;5075372;28;20464;-71
2022/02/11 07:51:27;;;;;;;16.50;8.70;;;5.40;99.90;;;;;;5075692;28;20446;-71
2022/02/11 07:53:55;;;;;;;16.00;8.73;;;5.40;99.90;;;;;;5075783;28;20478;-71
2022/02/11 07:56:22;;;;;;;13.93;8.57;;;5.40;99.90;;;;;;5075549;28;20455;-70
2022/02/11 07:58:51;;;;;;;14.13;9.20;;;5.30;99.90;;;;;;5075625;28;20816;-71
2022/02/11 08:01:19;;;;;;;14.17;8.60;;;5.40;99.90;;;;;;5076216;28;20462;-72
2022/02/11 08:03:46;;;;;;;19.43;8.40;;;5.40;99.90;;;;;;5075756;28;20454;-71
2022/02/11 08:06:14;;;;;;;13.93;9.17;;;5.40;99.90;;;;;;5075644;28;20500;-70
2022/02/11 08:08:41;;;;;;;14.40;8.20;;;5.40;99.90;;;;;;5074905;28;20455;-70
2022/02/11 08:11:08;;;;;;;11.23;7.67;;;5.20;99.90;;;;;;5075721;28;20755;-72
2022/02/11 08:13:36;;;;;;;17.67;8.70;;;5.20;99.90;;;;;;5075986;28;20478;-72
2022/02/11 08:16:03;;;;;;;12.90;8.20;;;5.10;99.90;;;;;;5075817;28;20461;-72
2022/02/11 08:18:30;;;;;;;20.70;8.80;;;5.10;99.90;;;;;;5075634;28;20464;-70
2022/02/11 08:20:57;;;;;;;12.23;7.30;;;5.10;99.90;;;;;;5076284;28;20462;-70
2022/02/11 08:23:25;;;;;;;13.87;6.77;;;5.00;99.90;;;;;;5075992;28;20461;-71
2022/02/11 08:25:52;;;;;;;20.90;7.97;;;5.00;99.90;;;;;;5075838;28;20454;-70
2022/02/11 08:28:19;;;;;;;11.43;6.27;;;5.10;99.90;;;;;;5075816;28;20454;-71
2022/02/11 08:30:49;;;;;;;15.87;7.83;;;5.10;99.90;;;;;;5075635;28;20458;-71
2022/02/11 08:33:16;;;;;;;9.13;6.33;;;5.10;99.90;;;;;;5078793;28;20482;-71
2022/02/11 08:35:44;;;;;;;11.87;7.30;;;5.10;99.90;;;;;;5080453;28;20488;-72
2022/02/11 08:38:10;;;;;;;11.53;7.03;;;5.20;99.90;;;;;;5080324;28;20458;-70
2022/02/11 08:40:39;;;;;;;13.43;6.83;;;5.20;99.90;;;;;;5079653;28;20454;-70
2022/02/11 08:43:05;;;;;;;11.43;6.50;;;5.20;99.90;;;;;;5079533;28;20465;-70
2022/02/11 08:45:36;;;;;;;13.17;7.50;;;5.20;99.90;;;;;;5080465;28;20454;-71
2022/02/11 08:48:04;;;;;;;13.47;6.83;;;5.30;99.90;;;;;;5080453;28;20446;-71
2022/02/11 08:50:31;;;;;;;9.17;6.47;;;5.30;99.90;;;;;;5079176;28;20974;-71
2022/02/11 08:52:57;;;;;;;9.70;6.30;;;5.40;99.90;;;;;;5079718;28;20454;-71
2022/02/11 08:55:24;;;;;;;15.70;7.63;;;5.40;99.90;;;;;;5079547;28;20523;-72
2022/02/11 08:57:53;;;;;;;8.37;5.07;;;5.30;99.90;;;;;;5079478;28;20891;-70
2022/02/11 09:00:19;;;;;;;10.80;5.17;;;5.20;99.90;;;;;;5078406;28;20450;-71
2022/02/11 09:02:46;;;;;;;10.90;6.13;;;5.10;99.90;;;;;;5078781;28;20516;-71
2022/02/11 09:05:13;;;;;;;9.87;6.20;;;5.00;99.90;;;;;;5078857;28;20836;-71
2022/02/11 09:07:40;;;;;;;8.10;5.13;;;4.90;99.90;;;;;;5078625;28;20457;-73
2022/02/11 09:10:07;;;;;;;12.80;6.20;;;4.90;99.90;;;;;;5078778;28;20465;-71
2022/02/11 09:12:35;;;;;;;11.23;6.40;;;4.90;99.90;;;;;;5078809;28;20458;-72
2022/02/11 09:15:03;;;;;;;10.47;6.13;;;4.90;99.90;;;;;;5078441;28;20478;-71
2022/02/11 09:17:32;;;;;;;8.43;5.30;;;5.00;99.90;;;;;;5079793;28;20816;-70
2022/02/11 09:19:58;;;;;;;9.50;5.53;;;5.10;99.90;;;;;;5079322;28;20488;-72
2022/02/11 09:22:25;;;;;;;7.63;5.33;;;5.30;99.90;;;;;;5079531;28;20923;-71
2022/02/11 09:24:54;;;;;;;8.87;4.90;;;5.40;99.90;;;;;;5080043;28;20461;-74
2022/02/11 09:27:24;;;;;;;7.30;5.40;;;5.50;99.90;;;;;;5079733;28;20515;-70
2022/02/11 09:29:51;;;;;;;9.83;5.90;;;5.50;99.90;;;;;;5079554;28;20528;-73
2022/02/11 09:32:20;;;;;;;9.20;6.23;;;5.60;99.90;;;;;;5079375;28;20462;-71
2022/02/11 09:34:46;;;;;;;8.97;5.47;;;5.70;99.90;;;;;;5078253;28;20474;-71
2022/02/11 09:37:13;;;;;;;9.47;6.37;;;5.70;99.90;;;;;;5078365;28;20555;-72
2022/02/11 09:39:40;;;;;;;8.93;5.73;;;5.80;99.90;;;;;;5078584;28;20454;-72
2022/02/11 09:42:07;;;;;;;10.67;5.80;;;5.80;99.90;;;;;;5078741;28;20549;-72
2022/02/11 09:44:34;;;;;;;11.30;7.03;;;5.80;99.90;;;;;;5078164;28;20512;-71
2022/02/11 09:47:01;;;;;;;16.50;5.97;;;5.90;99.90;;;;;;5077967;28;20541;-70
2022/02/11 09:49:30;;;;;;;18.33;5.93;;;5.80;99.90;;;;;;5077981;28;20490;-73
2022/02/11 09:51:58;;;;;;;11.77;5.87;;;5.80;99.90;;;;;;5078554;28;20473;-72
2022/02/11 09:54:25;;;;;;;10.53;5.87;;;5.70;99.90;;;;;;5078241;28;20520;-70
2022/02/11 09:56:52;;;;;;;11.67;7.20;;;5.80;99.90;;;;;;5078619;28;20527;-70
2022/02/11 09:59:19;;;;;;;10.30;6.10;;;5.80;99.90;;;;;;5078122;28;20469;-71
2022/02/11 10:01:46;;;;;;;9.20;6.63;;;5.90;99.90;;;;;;5077927;28;20458;-71
2022/02/11 10:04:16;;;;;;;11.83;6.73;;;5.90;99.90;;;;;;5078883;28;20778;-72
2022/02/11 10:06:48;;;;;;;10.00;6.23;;;6.00;99.90;;;;;;5077953;28;20466;-71
2022/02/11 10:09:15;;;;;;;12.40;6.83;;;6.00;99.90;;;;;;5078482;28;20803;-70
2022/02/11 10:11:44;;;;;;;9.30;6.40;;;6.00;99.90;;;;;;5077736;28;20458;-71
2022/02/11 10:14:18;;;;;;;8.23;6.70;;;6.00;99.90;;;;;;5077379;28;20841;-71
2022/02/11 10:16:54;;;;;;;10.90;7.00;;;6.10;99.90;;;;;;5077643;28;20457;-71
2022/02/11 10:19:55;;;;;;;10.60;7.03;;;6.10;99.90;;;;;;5077311;28;20449;-71
2022/02/11 10:22:25;;;;;;;10.40;6.67;;;6.10;99.90;;;;;;5077121;28;20837;-71
2022/02/11 10:24:57;;;;;;;14.33;8.93;;;6.10;99.90;;;;;;5077615;28;20451;-71
2022/02/11 10:27:26;;;;;;;16.07;9.20;;;6.10;99.90;;;;;;5077545;28;20909;-71
2022/02/11 10:29:56;;;;;;;18.73;7.97;;;6.10;99.90;;;;;;5077158;28;20919;-71
2022/02/11 10:32:44;;;;;;;13.50;9.70;;;6.00;99.90;;;;;;5077081;28;20503;-71
2022/02/11 10:35:14;;;;;;;20.60;9.77;;;6.00;99.90;;;;;;5077035;28;20564;-70
2022/02/11 10:38:07;;;;;;;15.93;9.40;;;6.00;99.90;;;;;;5077880;28;20458;-70
2022/02/11 10:40:35;;;;;;;12.80;8.60;;;6.00;99.90;;;;;;5077564;28;20825;-71
2022/02/11 10:43:03;;;;;;;12.43;7.23;;;6.00;99.90;;;;;;5079346;28;20450;-71
2022/02/11 10:45:31;;;;;;;6.50;5.47;;;6.00;99.90;;;;;;5080594;28;20462;-70
2022/02/11 10:48:11;;;;;;;9.43;6.97;;;6.10;99.90;;;;;;5079224;28;20461;-71
2022/02/11 10:50:39;;;;;;;9.63;6.90;;;6.10;99.90;;;;;;5077252;28;20493;-69
2022/02/11 10:53:07;;;;;;;14.97;8.30;;;6.10;99.90;;;;;;5076692;28;20450;-71
2022/02/11 10:55:37;;;;;;;10.47;7.20;;;6.10;99.90;;;;;;5075961;28;20508;-71
2022/02/11 10:58:03;;;;;;;9.50;6.87;;;6.10;99.90;;;;;;5077213;28;20787;-71
2022/02/11 11:00:30;;;;;;;13.37;6.90;;;5.90;99.90;;;;;;5076420;28;20465;-71
2022/02/11 11:02:57;;;;;;;15.40;8.73;;;5.80;99.90;;;;;;5078085;28;20930;-70
2022/02/11 11:05:24;;;;;;;13.67;9.10;;;5.60;99.90;;;;;;5078004;28;20465;-71
2022/02/11 11:07:54;;;;;;;14.50;8.70;;;5.50;99.90;;;;;;5077318;28;20528;-72
2022/02/11 11:10:22;;;;;;;14.77;7.97;;;5.50;99.90;;;;;;5077577;28;20458;-71
2022/02/11 11:12:56;;;;;;;9.43;7.40;;;5.40;99.90;;;;;;5078139;28;20488;-71
2022/02/11 11:15:23;;;;;;;9.50;7.60;;;5.50;99.90;;;;;;5077859;28;20509;-71
2022/02/11 11:17:51;;;;;;;12.60;8.07;;;5.70;99.90;;;;;;5077759;28;20511;-72
2022/02/11 11:20:20;;;;;;;11.33;7.03;;;5.80;99.90;;;;;;5077709;28;20462;-71
2022/02/11 11:22:53;;;;;;;12.60;8.10;;;6.00;99.90;;;;;;5078109;28;20489;-71
2022/02/11 11:25:21;;;;;;;10.77;8.00;;;6.20;99.90;;;;;;5078768;28;20470;-71
2022/02/11 11:27:51;;;;;;;8.57;6.13;;;6.40;99.90;;;;;;5083556;28;20454;-71
2022/02/11 11:30:24;;;;;;;8.50;6.33;;;6.40;99.90;;;;;;5080754;28;20462;-71
2022/02/11 11:33:23;;;;;;;6.83;5.90;;;6.40;99.90;;;;;;5084853;28;20793;-71
2022/02/11 11:36:10;;;;;;;10.57;7.00;;;6.50;99.90;;;;;;5080652;28;20466;-71
2022/02/11 11:38:46;;;;;;;6.73;6.00;;;6.60;99.90;;;;;;5081587;28;20457;-70
2022/02/11 11:41:19;;;;;;;7.73;5.73;;;6.80;1.00;;;;;;5080091;28;20895;-70
2022/02/11 11:43:49;;;;;;;11.23;5.43;;;7.00;99.90;;;;;;5079028;28;20510;-70
2022/02/11 11:46:36;;;;;;;9.60;6.63;;;7.10;99.90;;;;;;5079349;28;20443;-71
2022/02/11 11:49:10;;;;;;;8.53;6.13;;;7.00;97.00;;;;;;5078339;28;20551;-71
2022/02/11 11:52:06;;;;;;;10.03;5.90;;;7.00;1.00;;;;;;5078532;28;20435;-71
2022/02/11 11:54:33;;;;;;;7.40;6.23;;;6.80;1.00;;;;;;5077411;28;20482;-71
2022/02/11 11:57:04;;;;;;;10.87;4.97;;;6.70;1.00;;;;;;5077287;28;20462;-71
2022/02/11 11:59:32;;;;;;;11.23;5.60;;;6.60;1.00;;;;;;5076685;28;20435;-71
2022/02/11 12:02:01;;;;;;;9.57;5.27;;;6.60;1.00;;;;;;5076619;28;20457;-70
2022/02/11 12:04:29;;;;;;;9.73;4.70;;;6.60;99.90;;;;;;5075022;28;20457;-69
2022/02/11 12:06:58;;;;;;;5.83;5.30;;;6.70;99.90;;;;;;5080465;28;20450;-71
2022/02/11 12:09:25;;;;;;;11.70;5.30;;;6.70;99.90;;;;;;5081870;28;20458;-72
2022/02/11 12:11:58;;;;;;;6.10;5.30;;;6.80;99.90;;;;;;5080365;28;20454;-71
2022/02/11 12:14:27;;;;;;;7.97;5.70;;;6.80;99.90;;;;;;5080339;28;20501;-71
2022/02/11 12:16:54;;;;;;;7.20;5.87;;;6.80;99.90;;;;;;5080714;28;20462;-71
2022/02/11 12:19:21;;;;;;;21.23;6.17;;;6.70;99.90;;;;;;5079545;28;20454;-71
2022/02/11 12:21:48;;;;;;;10.40;5.50;;;6.60;99.90;;;;;;5080507;28;20535;-71
2022/02/11 12:29:51;;;;;;;10.13;5.80;;;6.50;99.90;;;;;;5078908;28;20422;-71
2022/02/11 12:32:19;;;;;;;8.20;5.40;;;6.50;99.90;;;;;;5078977;28;20878;-71
2022/02/11 12:34:50;;;;;;;7.27;6.10;;;6.60;99.90;;;;;;5079529;28;20803;-70
2022/02/11 12:37:18;;;;;;;7.13;5.80;;;6.70;99.90;;;;;;5078616;28;20461;-71
2022/02/11 12:39:46;;;;;;;11.27;5.27;;;6.80;99.90;;;;;;5078786;28;20490;-71
2022/02/11 12:42:17;;;;;;;6.43;4.80;;;6.90;99.90;;;;;;5078554;28;20462;-72
2022/02/11 12:44:44;;;;;;;4.83;3.63;;;7.40;99.90;;;;;;5079379;28;20442;-70
2022/02/11 12:47:15;;;;;;;10.30;5.10;;;8.10;99.90;;;;;;5079776;28;20485;-71
2022/02/11 12:49:47;;;;;;;6.10;4.40;;;8.30;99.90;;;;;;5079543;28;20547;-74
2022/02/11 12:52:19;;;;;;;5.53;4.07;;;8.20;99.90;;;;;;5079213;28;20453;-71
2022/02/11 12:55:11;;;;;;;7.73;4.37;;;8.20;99.90;;;;;;5080452;28;20508;-71
2022/02/11 12:57:40;;;;;;;5.27;4.10;;;8.20;99.90;;;;;;5074973;28;20486;-71
2022/02/11 13:00:09;;;;;;;7.40;4.50;;;8.20;99.90;;;;;;5080818;28;20446;-69
2022/02/11 13:02:38;;;;;;;5.43;3.80;;;8.20;99.90;;;;;;5080134;28;20533;-71
2022/02/11 13:05:10;;;;;;;5.63;4.50;;;7.90;99.90;;;;;;5080566;28;20523;-71
2022/02/11 13:07:39;;;;;;;11.03;4.67;;;7.80;99.90;;;;;;5081072;28;20460;-71
2022/02/11 13:10:07;;;;;;;5.00;4.50;;;7.80;99.90;;;;;;5082130;28;20530;-72
2022/02/11 13:12:40;;;;;;;5.93;5.33;;;7.80;99.90;;;;;;5079594;28;20973;-71
2022/02/11 13:15:11;;;;;;;8.20;6.63;;;7.70;99.90;;;;;;5077914;28;20809;-71
2022/02/11 13:17:39;;;;;;;6.57;5.97;;;7.50;99.90;;;;;;5078121;28;20754;-71
2022/02/11 13:20:08;;;;;;;9.83;7.03;;;8.00;99.90;;;;;;5077921;28;20458;-72
2022/02/11 13:22:36;;;;;;;8.40;6.17;;;8.80;99.90;;;;;;5078359;28;20930;-71
2022/02/11 13:25:03;;;;;;;7.27;6.57;;;9.60;99.90;;;;;;5078355;28;20454;-72
2022/02/11 13:27:46;;;;;;;6.60;6.00;;;10.30;99.90;;;;;;5078016;28;20504;-71
2022/02/11 13:30:15;;;;;;;6.60;5.80;;;10.70;99.90;;;;;;5077892;28;20434;-71
2022/02/11 13:32:43;;;;;;;4.40;4.03;;;11.30;99.90;;;;;;5078166;28;20800;-71
2022/02/11 13:35:11;;;;;;;5.00;4.60;;;11.90;99.90;;;;;;5077670;28;20493;-71
2022/02/11 13:37:40;;;;;;;4.90;4.40;;;12.20;99.90;;;;;;5078252;28;20458;-71
2022/02/11 13:40:12;;;;;;;4.90;4.40;;;12.10;99.90;;;;;;5077923;28;20938;-70
2022/02/11 13:42:38;;;;;;;4.00;3.70;;;11.60;99.90;;;;;;5077294;28;20525;-70
2022/02/11 13:45:08;;;;;;;4.83;4.37;;;11.50;99.90;;;;;;5078591;28;20560;-70
2022/02/11 13:47:35;;;;;;;7.10;3.80;;;12.00;99.90;;;;;;5078530;28;20777;-71
2022/02/11 13:50:06;;;;;;;6.13;5.23;;;12.60;99.90;;;;;;5079148;28;20570;-71
2022/02/11 13:53:06;;;;;;;7.97;4.27;;;12.40;99.90;;;;;;5078274;28;20465;-71
2022/02/11 13:55:34;;;;;;;5.50;5.00;;;11.30;99.90;;;;;;5077218;28;20478;-71
2022/02/11 13:58:16;;;;;;;9.93;5.23;;;10.10;99.90;;;;;;5077103;28;20491;-72
2022/02/11 14:00:43;;;;;;;6.43;5.53;;;9.10;99.90;;;;;;5075349;28;20473;-69
2022/02/11 14:03:23;;;;;;;9.10;6.00;;;9.00;99.90;;;;;;5076613;28;20450;-69
2022/02/11 14:05:54;;;;;;;6.20;5.70;;;9.50;99.90;;;;;;5076167;28;20443;-69
2022/02/11 14:08:23;;;;;;;5.03;4.60;;;10.20;99.90;;;;;;5076227;28;20451;-68
2022/02/11 14:11:08;;;;;;;6.00;5.50;;;11.00;99.90;;;;;;5076414;28;20477;-69
2022/02/11 14:13:35;;;;;;;7.70;6.07;;;11.10;99.90;;;;;;5075893;28;20911;-68
2022/02/11 14:16:01;;;;;;;6.90;5.90;;;10.30;99.90;;;;;;5076178;28;20866;-69
2022/02/11 14:18:28;;;;;;;9.37;6.40;;;9.50;99.90;;;;;;5076313;28;20465;-69
2022/02/11 14:20:57;;;;;;;8.27;7.47;;;9.00;99.90;;;;;;5076463;28;20458;-69
2022/02/11 14:23:24;;;;;;;8.60;7.80;;;8.60;99.90;;;;;;5076015;28;20519;-69
2022/02/11 14:25:51;;;;;;;9.93;9.03;;;8.40;99.90;;;;;;5077182;28;20458;-69
2022/02/11 14:28:20;;;;;;;8.47;7.40;;;8.20;99.90;;;;;;5076065;28;20482;-69
2022/02/11 14:30:48;;;;;;;7.23;6.53;;;8.00;99.90;;;;;;5075414;28;20538;-68
2022/02/11 14:33:15;;;;;;;7.20;6.50;;;7.70;99.90;;;;;;5076205;28;20490;-70
2022/02/11 14:35:42;;;;;;;10.23;6.40;;;7.40;99.90;;;;;;5076737;28;20474;-69
2022/02/11 14:38:10;;;;;;;7.73;6.73;;;7.10;99.90;;;;;;5079011;28;20466;-69
2022/02/11 14:40:38;;;;;;;7.87;6.83;;;6.90;99.90;;;;;;5079482;28;20454;-68
2022/02/11 14:43:06;;;;;;;8.30;6.93;;;6.80;99.90;;;;;;5077040;28;20458;-69
2022/02/11 14:45:32;;;;;;;9.30;6.50;;;6.70;99.90;;;;;;5078310;28;20485;-69
2022/02/11 14:48:00;;;;;;;8.33;7.47;;;6.70;99.90;;;;;;5075917;28;20465;-69
2022/02/11 14:50:28;;;;;;;7.20;6.30;;;6.60;99.90;;;;;;5076071;28;20569;-69
2022/02/11 14:52:55;;;;;;;7.07;6.47;;;6.60;99.90;;;;;;5075576;28;20492;-69
2022/02/11 14:55:23;;;;;;;8.93;6.20;;;6.60;99.90;;;;;;5075813;28;20494;-69
2022/02/11 14:57:52;;;;;;;7.77;6.60;;;6.60;99.90;;;;;;5075712;28;20521;-69
2022/02/11 15:00:19;;;;;;;7.47;6.43;;;6.50;99.90;;;;;;5075355;28;20568;-69
2022/02/11 15:02:46;;;;;;;7.90;6.93;;;6.50;99.90;;;;;;5075088;28;20894;-68
2022/02/11 15:05:13;;;;;;;7.23;6.33;;;6.50;99.90;;;;;;5075391;28;20458;-69
2022/02/11 15:07:42;;;;;;;6.83;6.13;;;6.50;99.90;;;;;;5075778;28;20457;-69
2022/02/11 15:10:09;;;;;;;6.40;5.90;;;6.50;99.90;;;;;;5076635;28;20549;-69
2022/02/11 15:12:37;;;;;;;6.90;6.30;;;6.60;99.90;;;;;;5077424;28;20450;-69
2022/02/11 15:15:05;;;;;;;6.30;5.80;;;6.80;99.90;;;;;;5075226;28;20450;-70
2022/02/11 15:17:32;;;;;;;6.00;5.40;;;6.90;99.90;;;;;;5075380;28;20453;-69
2022/02/11 15:19:58;;;;;;;10.07;6.33;;;6.90;99.90;;;;;;5076078;28;20454;-69
2022/02/11 15:22:25;;;;;;;8.40;5.87;;;6.90;99.90;;;;;;5076794;28;20783;-68
2022/02/11 15:24:52;;;;;;;6.43;5.83;;;7.00;99.90;;;;;;5077518;28;20462;-69
2022/02/11 15:27:19;;;;;;;7.00;6.10;;;7.00;99.90;;;;;;5077891;28;20544;-68
2022/02/11 15:29:47;;;;;;;9.30;5.87;;;6.90;99.90;;;;;;5078072;28;20474;-69
2022/02/11 15:32:14;;;;;;;7.33;6.10;;;7.00;99.90;;;;;;5078563;28;20463;-69
2022/02/11 15:34:40;;;;;;;6.80;6.10;;;7.00;99.90;;;;;;5076425;28;20755;-69
2022/02/11 15:37:08;;;;;;;6.00;5.40;;;7.10;99.90;;;;;;5075514;28;20482;-68
2022/02/11 15:39:35;;;;;;;5.93;5.43;;;7.30;99.90;;;;;;5075534;28;20453;-69
2022/02/11 15:42:02;;;;;;;6.80;5.27;;;7.40;99.90;;;;;;5074954;28;20977;-67
2022/02/11 15:44:29;;;;;;;5.87;5.27;;;7.30;99.90;;;;;;5074992;28;20458;-70
2022/02/11 15:46:57;;;;;;;7.47;5.37;;;7.20;99.90;;;;;;5075259;28;20465;-69
2022/02/11 15:49:24;;;;;;;7.90;6.70;;;7.10;99.90;;;;;;5074822;28;21008;-69
2022/02/11 15:51:52;;;;;;;6.07;5.10;;;7.00;99.90;;;;;;5075726;28;20446;-68
2022/02/11 15:54:18;;;;;;;7.33;6.00;;;6.90;99.90;;;;;;5075626;28;20454;-69
2022/02/11 15:56:45;;;;;;;6.60;6.00;;;6.70;99.90;;;;;;5075715;28;20796;-69
2022/02/11 15:59:12;;;;;;;6.80;6.10;;;6.60;99.90;;;;;;5075853;28;20466;-69
2022/02/11 16:01:39;;;;;;;6.90;6.20;;;6.50;99.90;;;;;;5074783;28;20462;-70
2022/02/11 16:04:07;;;;;;;6.87;6.17;;;6.40;99.90;;;;;;5074441;28;20458;-68
2022/02/11 16:06:34;;;;;;;6.83;6.20;;;6.30;99.90;;;;;;5075031;28;20454;-69